sensor_id;sensor_type;location;lat;lon;timestamp;P1;durP1;ratioP1;P2;durP2;ratioP2
48040;SDS011;33815;48.386;11.738;2022-07-23T00:01:21;9.52;;;7.22;;
48040;SDS011;33815;48.386;11.738;2022-07-23T00:03:47;8.30;;;7.50;;
48040;SDS011;33815;48.386;11.738;2022-07-23T00:06:12;7.70;;;6.97;;
48040;SDS011;33815;48.386;11.738;2022-07-23T00:08:37;11.77;;;8.25;;
48040;SDS011;33815;48.386;11.738;2022-07-23T00:11:03;7.53;;;6.83;;
48040;SDS011;33815;48.386;11.738;2022-07-23T00:13:28;8.43;;;7.45;;
48040;SDS011;33815;48.386;11.738;2022-07-23T00:15:54;9.00;;;6.93;;
48040;SDS011;33815;48.386;11.738;2022-07-23T00:18:20;7.95;;;7.18;;
48040;SDS011;33815;48.386;11.738;2022-07-23T00:20:45;7.93;;;7.00;;
48040;SDS011;33815;48.386;11.738;2022-07-23T00:23:10;9.87;;;7.97;;
48040;SDS011;33815;48.386;11.738;2022-07-23T00:25:36;10.30;;;7.20;;
48040;SDS011;33815;48.386;11.738;2022-07-23T00:28:01;9.88;;;7.05;;
48040;SDS011;33815;48.386;11.738;2022-07-23T00:30:26;7.95;;;7.25;;
48040;SDS011;33815;48.386;11.738;2022-07-23T00:32:55;10.05;;;7.65;;
48040;SDS011;33815;48.386;11.738;2022-07-23T00:35:23;9.02;;;8.05;;
48040;SDS011;33815;48.386;11.738;2022-07-23T00:37:49;9.18;;;7.05;;
48040;SDS011;33815;48.386;11.738;2022-07-23T00:40:15;9.82;;;8.15;;
48040;SDS011;33815;48.386;11.738;2022-07-23T00:42:41;8.48;;;7.45;;
48040;SDS011;33815;48.386;11.738;2022-07-23T00:45:06;8.02;;;7.20;;
48040;SDS011;33815;48.386;11.738;2022-07-23T00:47:32;7.47;;;6.47;;
48040;SDS011;33815;48.386;11.738;2022-07-23T00:49:58;11.25;;;7.50;;
48040;SDS011;33815;48.386;11.738;2022-07-23T00:52:23;7.75;;;6.95;;
48040;SDS011;33815;48.386;11.738;2022-07-23T00:54:49;7.55;;;6.63;;
48040;SDS011;33815;48.386;11.738;2022-07-23T00:57:15;7.65;;;6.90;;
48040;SDS011;33815;48.386;11.738;2022-07-23T00:59:40;8.85;;;7.70;;
48040;SDS011;33815;48.386;11.738;2022-07-23T01:02:06;7.90;;;7.10;;
48040;SDS011;33815;48.386;11.738;2022-07-23T01:04:31;8.05;;;7.25;;
48040;SDS011;33815;48.386;11.738;2022-07-23T01:06:56;11.48;;;8.30;;
48040;SDS011;33815;48.386;11.738;2022-07-23T01:09:22;8.60;;;7.32;;
48040;SDS011;33815;48.386;11.738;2022-07-23T01:11:47;9.57;;;7.85;;
48040;SDS011;33815;48.386;11.738;2022-07-23T01:14:14;7.83;;;7.13;;
48040;SDS011;33815;48.386;11.738;2022-07-23T01:16:40;9.35;;;8.25;;
48040;SDS011;33815;48.386;11.738;2022-07-23T01:19:07;8.40;;;7.55;;
48040;SDS011;33815;48.386;11.738;2022-07-23T01:21:38;7.88;;;7.18;;
48040;SDS011;33815;48.386;11.738;2022-07-23T01:24:05;10.82;;;7.43;;
48040;SDS011;33815;48.386;11.738;2022-07-23T01:26:31;12.95;;;9.05;;
48040;SDS011;33815;48.386;11.738;2022-07-23T01:28:56;11.07;;;8.27;;
48040;SDS011;33815;48.386;11.738;2022-07-23T01:31:22;11.88;;;8.98;;
48040;SDS011;33815;48.386;11.738;2022-07-23T01:33:47;11.82;;;8.32;;
48040;SDS011;33815;48.386;11.738;2022-07-23T01:36:13;22.05;;;7.63;;
48040;SDS011;33815;48.386;11.738;2022-07-23T01:38:38;21.67;;;7.07;;
48040;SDS011;33815;48.386;11.738;2022-07-23T01:41:03;23.80;;;6.68;;
48040;SDS011;33815;48.386;11.738;2022-07-23T01:43:29;12.73;;;5.93;;
48040;SDS011;33815;48.386;11.738;2022-07-23T01:45:55;9.20;;;5.28;;
48040;SDS011;33815;48.386;11.738;2022-07-23T01:48:20;11.57;;;4.90;;
48040;SDS011;33815;48.386;11.738;2022-07-23T01:50:46;6.63;;;4.45;;
48040;SDS011;33815;48.386;11.738;2022-07-23T01:53:12;5.32;;;4.70;;
48040;SDS011;33815;48.386;11.738;2022-07-23T01:55:38;6.22;;;4.80;;
48040;SDS011;33815;48.386;11.738;2022-07-23T01:58:03;12.50;;;5.10;;
48040;SDS011;33815;48.386;11.738;2022-07-23T02:00:28;6.57;;;4.87;;
48040;SDS011;33815;48.386;11.738;2022-07-23T02:02:54;6.25;;;5.15;;
48040;SDS011;33815;48.386;11.738;2022-07-23T02:05:19;9.10;;;5.47;;
48040;SDS011;33815;48.386;11.738;2022-07-23T02:07:44;6.28;;;5.25;;
48040;SDS011;33815;48.386;11.738;2022-07-23T02:10:09;13.27;;;5.13;;
48040;SDS011;33815;48.386;11.738;2022-07-23T02:12:35;6.07;;;5.13;;
48040;SDS011;33815;48.386;11.738;2022-07-23T02:15:00;7.85;;;5.60;;
48040;SDS011;33815;48.386;11.738;2022-07-23T02:17:25;8.17;;;6.17;;
48040;SDS011;33815;48.386;11.738;2022-07-23T02:19:51;12.57;;;6.57;;
48040;SDS011;33815;48.386;11.738;2022-07-23T02:22:16;12.17;;;7.20;;
48040;SDS011;33815;48.386;11.738;2022-07-23T02:24:41;11.83;;;7.90;;
48040;SDS011;33815;48.386;11.738;2022-07-23T02:27:06;10.47;;;7.83;;
48040;SDS011;33815;48.386;11.738;2022-07-23T02:29:32;10.18;;;7.25;;
48040;SDS011;33815;48.386;11.738;2022-07-23T02:31:57;9.40;;;8.50;;
48040;SDS011;33815;48.386;11.738;2022-07-23T02:34:22;12.50;;;9.40;;
48040;SDS011;33815;48.386;11.738;2022-07-23T02:36:47;8.33;;;7.10;;
48040;SDS011;33815;48.386;11.738;2022-07-23T02:39:13;12.45;;;7.78;;
48040;SDS011;33815;48.386;11.738;2022-07-23T02:41:39;12.98;;;8.52;;
48040;SDS011;33815;48.386;11.738;2022-07-23T02:44:04;9.75;;;7.70;;
48040;SDS011;33815;48.386;11.738;2022-07-23T02:46:30;8.13;;;7.17;;
48040;SDS011;33815;48.386;11.738;2022-07-23T02:48:55;11.50;;;8.27;;
48040;SDS011;33815;48.386;11.738;2022-07-23T02:51:20;9.33;;;7.03;;
48040;SDS011;33815;48.386;11.738;2022-07-23T02:53:45;8.63;;;7.73;;
48040;SDS011;33815;48.386;11.738;2022-07-23T02:56:11;11.17;;;7.83;;
48040;SDS011;33815;48.386;11.738;2022-07-23T02:58:36;14.23;;;8.20;;
48040;SDS011;33815;48.386;11.738;2022-07-23T03:01:01;13.25;;;8.65;;
48040;SDS011;33815;48.386;11.738;2022-07-23T03:03:27;10.75;;;8.35;;
48040;SDS011;33815;48.386;11.738;2022-07-23T03:05:52;20.70;;;10.10;;
48040;SDS011;33815;48.386;11.738;2022-07-23T03:08:17;15.83;;;9.10;;
48040;SDS011;33815;48.386;11.738;2022-07-23T03:10:43;11.40;;;8.10;;
48040;SDS011;33815;48.386;11.738;2022-07-23T03:13:08;12.23;;;7.63;;
48040;SDS011;33815;48.386;11.738;2022-07-23T03:15:33;12.00;;;8.35;;
48040;SDS011;33815;48.386;11.738;2022-07-23T03:17:58;16.10;;;8.37;;
48040;SDS011;33815;48.386;11.738;2022-07-23T03:20:24;15.95;;;8.50;;
48040;SDS011;33815;48.386;11.738;2022-07-23T03:22:49;9.83;;;8.83;;
48040;SDS011;33815;48.386;11.738;2022-07-23T03:25:14;17.40;;;9.00;;
48040;SDS011;33815;48.386;11.738;2022-07-23T03:27:39;9.83;;;8.17;;
48040;SDS011;33815;48.386;11.738;2022-07-23T03:30:05;15.25;;;7.82;;
48040;SDS011;33815;48.386;11.738;2022-07-23T03:32:31;10.45;;;7.07;;
48040;SDS011;33815;48.386;11.738;2022-07-23T03:34:56;14.18;;;8.65;;
48040;SDS011;33815;48.386;11.738;2022-07-23T03:37:22;13.82;;;7.80;;
48040;SDS011;33815;48.386;11.738;2022-07-23T03:39:47;11.25;;;8.07;;
48040;SDS011;33815;48.386;11.738;2022-07-23T03:42:12;13.40;;;8.18;;
48040;SDS011;33815;48.386;11.738;2022-07-23T03:44:38;9.35;;;7.55;;
48040;SDS011;33815;48.386;11.738;2022-07-23T03:47:04;13.10;;;7.82;;
48040;SDS011;33815;48.386;11.738;2022-07-23T03:49:30;12.90;;;8.95;;
48040;SDS011;33815;48.386;11.738;2022-07-23T03:51:55;12.68;;;9.55;;
48040;SDS011;33815;48.386;11.738;2022-07-23T03:54:20;12.35;;;7.45;;
48040;SDS011;33815;48.386;11.738;2022-07-23T03:56:46;10.93;;;8.23;;
48040;SDS011;33815;48.386;11.738;2022-07-23T03:59:11;10.13;;;8.10;;
48040;SDS011;33815;48.386;11.738;2022-07-23T04:01:36;9.90;;;7.93;;
48040;SDS011;33815;48.386;11.738;2022-07-23T04:04:02;11.60;;;8.55;;
48040;SDS011;33815;48.386;11.738;2022-07-23T04:06:28;14.07;;;7.90;;
48040;SDS011;33815;48.386;11.738;2022-07-23T04:08:53;9.10;;;6.90;;
48040;SDS011;33815;48.386;11.738;2022-07-23T04:11:19;9.18;;;6.45;;
48040;SDS011;33815;48.386;11.738;2022-07-23T04:13:44;8.75;;;7.15;;
48040;SDS011;33815;48.386;11.738;2022-07-23T04:16:09;8.38;;;6.50;;
48040;SDS011;33815;48.386;11.738;2022-07-23T04:18:34;11.70;;;6.93;;
48040;SDS011;33815;48.386;11.738;2022-07-23T04:21:00;8.45;;;6.70;;
48040;SDS011;33815;48.386;11.738;2022-07-23T04:23:25;7.70;;;6.43;;
48040;SDS011;33815;48.386;11.738;2022-07-23T04:25:50;8.13;;;5.78;;
48040;SDS011;33815;48.386;11.738;2022-07-23T04:28:16;8.17;;;6.90;;
48040;SDS011;33815;48.386;11.738;2022-07-23T04:30:41;9.40;;;6.80;;
48040;SDS011;33815;48.386;11.738;2022-07-23T04:33:06;7.30;;;6.53;;
48040;SDS011;33815;48.386;11.738;2022-07-23T04:35:32;9.35;;;7.18;;
48040;SDS011;33815;48.386;11.738;2022-07-23T04:37:58;7.95;;;7.15;;
48040;SDS011;33815;48.386;11.738;2022-07-23T04:40:23;7.65;;;6.63;;
48040;SDS011;33815;48.386;11.738;2022-07-23T04:42:48;7.90;;;6.83;;
48040;SDS011;33815;48.386;11.738;2022-07-23T04:45:13;8.73;;;7.03;;
48040;SDS011;33815;48.386;11.738;2022-07-23T04:47:39;9.20;;;6.83;;
48040;SDS011;33815;48.386;11.738;2022-07-23T04:50:04;7.60;;;6.90;;
48040;SDS011;33815;48.386;11.738;2022-07-23T04:52:29;7.57;;;6.38;;
48040;SDS011;33815;48.386;11.738;2022-07-23T04:54:55;8.93;;;7.57;;
48040;SDS011;33815;48.386;11.738;2022-07-23T04:57:20;8.63;;;7.47;;
48040;SDS011;33815;48.386;11.738;2022-07-23T04:59:45;9.40;;;7.83;;
48040;SDS011;33815;48.386;11.738;2022-07-23T05:02:11;8.18;;;7.38;;
48040;SDS011;33815;48.386;11.738;2022-07-23T05:04:36;10.23;;;8.05;;
48040;SDS011;33815;48.386;11.738;2022-07-23T05:07:01;10.77;;;8.30;;
48040;SDS011;33815;48.386;11.738;2022-07-23T05:09:26;12.60;;;7.43;;
48040;SDS011;33815;48.386;11.738;2022-07-23T05:11:52;8.63;;;6.90;;
48040;SDS011;33815;48.386;11.738;2022-07-23T05:14:17;8.85;;;7.00;;
48040;SDS011;33815;48.386;11.738;2022-07-23T05:16:42;8.15;;;7.35;;
48040;SDS011;33815;48.386;11.738;2022-07-23T05:19:07;7.82;;;6.93;;
48040;SDS011;33815;48.386;11.738;2022-07-23T05:21:33;7.90;;;7.00;;
48040;SDS011;33815;48.386;11.738;2022-07-23T05:23:58;7.72;;;7.03;;
48040;SDS011;33815;48.386;11.738;2022-07-23T05:26:24;10.23;;;7.00;;
48040;SDS011;33815;48.386;11.738;2022-07-23T05:28:50;8.57;;;6.90;;
48040;SDS011;33815;48.386;11.738;2022-07-23T05:31:15;7.82;;;6.95;;
48040;SDS011;33815;48.386;11.738;2022-07-23T05:33:40;8.27;;;7.45;;
48040;SDS011;33815;48.386;11.738;2022-07-23T05:36:06;11.40;;;6.80;;
48040;SDS011;33815;48.386;11.738;2022-07-23T05:38:31;8.05;;;6.90;;
48040;SDS011;33815;48.386;11.738;2022-07-23T05:40:57;10.10;;;7.20;;
48040;SDS011;33815;48.386;11.738;2022-07-23T05:43:23;10.05;;;6.40;;
48040;SDS011;33815;48.386;11.738;2022-07-23T05:45:48;10.98;;;7.15;;
48040;SDS011;33815;48.386;11.738;2022-07-23T05:48:14;8.40;;;7.28;;
48040;SDS011;33815;48.386;11.738;2022-07-23T05:50:39;8.33;;;7.53;;
48040;SDS011;33815;48.386;11.738;2022-07-23T05:53:04;10.82;;;7.40;;
48040;SDS011;33815;48.386;11.738;2022-07-23T05:55:30;8.03;;;7.30;;
48040;SDS011;33815;48.386;11.738;2022-07-23T05:57:56;7.28;;;6.30;;
48040;SDS011;33815;48.386;11.738;2022-07-23T06:00:22;7.68;;;6.97;;
48040;SDS011;33815;48.386;11.738;2022-07-23T06:02:48;8.32;;;7.00;;
48040;SDS011;33815;48.386;11.738;2022-07-23T06:05:13;9.50;;;7.95;;
48040;SDS011;33815;48.386;11.738;2022-07-23T06:07:39;7.63;;;6.70;;
48040;SDS011;33815;48.386;11.738;2022-07-23T06:10:04;7.05;;;6.45;;
48040;SDS011;33815;48.386;11.738;2022-07-23T06:12:30;7.43;;;6.72;;
48040;SDS011;33815;48.386;11.738;2022-07-23T06:14:56;7.43;;;6.75;;
48040;SDS011;33815;48.386;11.738;2022-07-23T06:17:21;9.07;;;7.40;;
48040;SDS011;33815;48.386;11.738;2022-07-23T06:19:47;8.23;;;6.70;;
48040;SDS011;33815;48.386;11.738;2022-07-23T06:22:12;7.77;;;6.67;;
48040;SDS011;33815;48.386;11.738;2022-07-23T06:24:37;7.93;;;6.57;;
48040;SDS011;33815;48.386;11.738;2022-07-23T06:27:03;7.32;;;6.53;;
48040;SDS011;33815;48.386;11.738;2022-07-23T06:29:28;12.07;;;7.50;;
48040;SDS011;33815;48.386;11.738;2022-07-23T06:31:54;7.50;;;6.57;;
48040;SDS011;33815;48.386;11.738;2022-07-23T06:34:19;8.13;;;6.37;;
48040;SDS011;33815;48.386;11.738;2022-07-23T06:36:44;7.60;;;6.80;;
48040;SDS011;33815;48.386;11.738;2022-07-23T06:39:09;9.13;;;6.73;;
48040;SDS011;33815;48.386;11.738;2022-07-23T06:41:35;8.07;;;7.28;;
48040;SDS011;33815;48.386;11.738;2022-07-23T06:44:00;7.20;;;6.55;;
48040;SDS011;33815;48.386;11.738;2022-07-23T06:46:26;7.77;;;7.00;;
48040;SDS011;33815;48.386;11.738;2022-07-23T06:48:51;10.20;;;7.20;;
48040;SDS011;33815;48.386;11.738;2022-07-23T06:51:16;7.93;;;7.13;;
48040;SDS011;33815;48.386;11.738;2022-07-23T06:53:41;7.30;;;6.63;;
48040;SDS011;33815;48.386;11.738;2022-07-23T06:56:07;7.80;;;7.03;;
48040;SDS011;33815;48.386;11.738;2022-07-23T06:58:32;13.93;;;7.63;;
48040;SDS011;33815;48.386;11.738;2022-07-23T07:00:57;11.07;;;7.30;;
48040;SDS011;33815;48.386;11.738;2022-07-23T07:03:23;9.55;;;6.78;;
48040;SDS011;33815;48.386;11.738;2022-07-23T07:05:48;9.65;;;7.05;;
48040;SDS011;33815;48.386;11.738;2022-07-23T07:08:14;8.38;;;7.38;;
48040;SDS011;33815;48.386;11.738;2022-07-23T07:10:40;9.93;;;7.38;;
48040;SDS011;33815;48.386;11.738;2022-07-23T07:13:05;7.05;;;5.95;;
48040;SDS011;33815;48.386;11.738;2022-07-23T07:15:30;7.82;;;6.50;;
48040;SDS011;33815;48.386;11.738;2022-07-23T07:17:56;5.77;;;5.27;;
48040;SDS011;33815;48.386;11.738;2022-07-23T07:20:21;6.40;;;5.77;;
48040;SDS011;33815;48.386;11.738;2022-07-23T07:22:46;9.50;;;5.97;;
48040;SDS011;33815;48.386;11.738;2022-07-23T07:25:12;8.53;;;6.30;;
48040;SDS011;33815;48.386;11.738;2022-07-23T07:27:37;7.13;;;6.05;;
48040;SDS011;33815;48.386;11.738;2022-07-23T07:30:04;6.40;;;5.80;;
48040;SDS011;33815;48.386;11.738;2022-07-23T07:32:30;8.07;;;6.57;;
48040;SDS011;33815;48.386;11.738;2022-07-23T07:34:57;7.43;;;6.72;;
48040;SDS011;33815;48.386;11.738;2022-07-23T07:37:22;6.97;;;6.35;;
48040;SDS011;33815;48.386;11.738;2022-07-23T07:39:47;7.07;;;6.37;;
48040;SDS011;33815;48.386;11.738;2022-07-23T07:42:13;7.00;;;6.30;;
48040;SDS011;33815;48.386;11.738;2022-07-23T07:44:38;9.30;;;6.97;;
48040;SDS011;33815;48.386;11.738;2022-07-23T07:47:03;7.28;;;6.57;;
48040;SDS011;33815;48.386;11.738;2022-07-23T07:49:29;7.30;;;6.57;;
48040;SDS011;33815;48.386;11.738;2022-07-23T07:51:54;8.83;;;6.10;;
48040;SDS011;33815;48.386;11.738;2022-07-23T07:54:19;7.37;;;6.77;;
48040;SDS011;33815;48.386;11.738;2022-07-23T07:56:44;8.83;;;7.10;;
48040;SDS011;33815;48.386;11.738;2022-07-23T07:59:10;8.27;;;7.07;;
48040;SDS011;33815;48.386;11.738;2022-07-23T08:01:36;9.98;;;7.88;;
48040;SDS011;33815;48.386;11.738;2022-07-23T08:04:02;8.27;;;7.47;;
48040;SDS011;33815;48.386;11.738;2022-07-23T08:06:27;7.50;;;6.65;;
48040;SDS011;33815;48.386;11.738;2022-07-23T08:08:52;9.30;;;7.90;;
48040;SDS011;33815;48.386;11.738;2022-07-23T08:11:18;8.87;;;7.97;;
48040;SDS011;33815;48.386;11.738;2022-07-23T08:13:43;8.60;;;7.73;;
48040;SDS011;33815;48.386;11.738;2022-07-23T08:16:09;15.15;;;8.68;;
48040;SDS011;33815;48.386;11.738;2022-07-23T08:18:35;8.90;;;8.00;;
48040;SDS011;33815;48.386;11.738;2022-07-23T08:21:00;9.07;;;7.87;;
48040;SDS011;33815;48.386;11.738;2022-07-23T08:23:25;9.90;;;8.93;;
48040;SDS011;33815;48.386;11.738;2022-07-23T08:25:52;13.18;;;8.88;;
48040;SDS011;33815;48.386;11.738;2022-07-23T08:28:17;11.90;;;8.63;;
48040;SDS011;33815;48.386;11.738;2022-07-23T08:30:44;13.43;;;9.37;;
48040;SDS011;33815;48.386;11.738;2022-07-23T08:33:11;13.88;;;9.75;;
48040;SDS011;33815;48.386;11.738;2022-07-23T08:35:47;12.63;;;9.77;;
48040;SDS011;33815;48.386;11.738;2022-07-23T08:38:16;11.93;;;10.05;;
48040;SDS011;33815;48.386;11.738;2022-07-23T08:40:46;12.82;;;9.80;;
48040;SDS011;33815;48.386;11.738;2022-07-23T08:43:14;12.20;;;10.50;;
48040;SDS011;33815;48.386;11.738;2022-07-23T08:45:42;12.07;;;10.38;;
48040;SDS011;33815;48.386;11.738;2022-07-23T08:48:12;10.15;;;9.25;;
48040;SDS011;33815;48.386;11.738;2022-07-23T08:50:43;10.23;;;8.23;;
48040;SDS011;33815;48.386;11.738;2022-07-23T08:53:10;8.70;;;7.25;;
48040;SDS011;33815;48.386;11.738;2022-07-23T08:55:35;7.82;;;7.07;;
48040;SDS011;33815;48.386;11.738;2022-07-23T08:58:01;8.90;;;7.90;;
48040;SDS011;33815;48.386;11.738;2022-07-23T09:00:27;9.70;;;8.02;;
48040;SDS011;33815;48.386;11.738;2022-07-23T09:02:53;9.07;;;8.25;;
48040;SDS011;33815;48.386;11.738;2022-07-23T09:05:18;8.25;;;7.38;;
48040;SDS011;33815;48.386;11.738;2022-07-23T09:10:45;11.70;;;8.20;;
48040;SDS011;33815;48.386;11.738;2022-07-23T09:16:13;11.60;;;8.55;;
48040;SDS011;33815;48.386;11.738;2022-07-23T09:21:09;10.38;;;8.45;;
48040;SDS011;33815;48.386;11.738;2022-07-23T09:23:40;9.77;;;8.77;;
48040;SDS011;33815;48.386;11.738;2022-07-23T09:26:17;10.13;;;7.80;;
48040;SDS011;33815;48.386;11.738;2022-07-23T09:28:49;11.23;;;8.05;;
48040;SDS011;33815;48.386;11.738;2022-07-23T09:31:17;8.68;;;6.95;;
48040;SDS011;33815;48.386;11.738;2022-07-23T09:33:43;11.80;;;8.67;;
48040;SDS011;33815;48.386;11.738;2022-07-23T09:36:08;8.90;;;8.02;;
48040;SDS011;33815;48.386;11.738;2022-07-23T09:38:34;9.75;;;7.28;;
48040;SDS011;33815;48.386;11.738;2022-07-23T09:41:09;7.90;;;7.10;;
48040;SDS011;33815;48.386;11.738;2022-07-23T09:46:16;8.13;;;7.13;;
48040;SDS011;33815;48.386;11.738;2022-07-23T09:48:50;14.75;;;7.35;;
48040;SDS011;33815;48.386;11.738;2022-07-23T09:51:21;12.38;;;7.10;;
48040;SDS011;33815;48.386;11.738;2022-07-23T09:54:01;8.75;;;7.57;;
48040;SDS011;33815;48.386;11.738;2022-07-23T09:56:27;9.13;;;7.65;;
48040;SDS011;33815;48.386;11.738;2022-07-23T09:58:52;10.15;;;7.28;;
48040;SDS011;33815;48.386;11.738;2022-07-23T10:01:37;11.40;;;7.53;;
48040;SDS011;33815;48.386;11.738;2022-07-23T10:04:03;7.20;;;6.53;;
48040;SDS011;33815;48.386;11.738;2022-07-23T10:06:28;8.20;;;6.65;;
48040;SDS011;33815;48.386;11.738;2022-07-23T10:08:54;7.68;;;6.82;;
48040;SDS011;33815;48.386;11.738;2022-07-23T10:11:23;10.18;;;6.43;;
48040;SDS011;33815;48.386;11.738;2022-07-23T10:13:49;8.07;;;5.68;;
48040;SDS011;33815;48.386;11.738;2022-07-23T10:16:20;8.18;;;5.40;;
48040;SDS011;33815;48.386;11.738;2022-07-23T10:18:46;5.95;;;5.35;;
48040;SDS011;33815;48.386;11.738;2022-07-23T10:21:12;6.25;;;5.68;;
48040;SDS011;33815;48.386;11.738;2022-07-23T10:23:47;8.20;;;5.85;;
48040;SDS011;33815;48.386;11.738;2022-07-23T10:26:36;9.15;;;5.28;;
48040;SDS011;33815;48.386;11.738;2022-07-23T10:29:22;5.93;;;5.28;;
48040;SDS011;33815;48.386;11.738;2022-07-23T10:32:00;6.90;;;5.60;;
48040;SDS011;33815;48.386;11.738;2022-07-23T10:36:59;5.60;;;5.07;;
48040;SDS011;33815;48.386;11.738;2022-07-23T10:39:36;6.25;;;4.95;;
48040;SDS011;33815;48.386;11.738;2022-07-23T10:42:26;6.82;;;6.13;;
48040;SDS011;33815;48.386;11.738;2022-07-23T10:44:57;7.63;;;5.90;;
48040;SDS011;33815;48.386;11.738;2022-07-23T10:47:29;6.50;;;5.53;;
48040;SDS011;33815;48.386;11.738;2022-07-23T10:50:20;9.20;;;5.63;;
48040;SDS011;33815;48.386;11.738;2022-07-23T10:53:11;7.15;;;5.68;;
48040;SDS011;33815;48.386;11.738;2022-07-23T10:55:41;6.63;;;5.53;;
48040;SDS011;33815;48.386;11.738;2022-07-23T10:58:08;7.35;;;5.88;;
48040;SDS011;33815;48.386;11.738;2022-07-23T11:00:34;7.28;;;5.93;;
48040;SDS011;33815;48.386;11.738;2022-07-23T11:03:02;6.25;;;5.70;;
48040;SDS011;33815;48.386;11.738;2022-07-23T11:05:47;5.90;;;5.38;;
48040;SDS011;33815;48.386;11.738;2022-07-23T11:08:13;8.07;;;5.73;;
48040;SDS011;33815;48.386;11.738;2022-07-23T11:10:46;7.15;;;6.32;;
48040;SDS011;33815;48.386;11.738;2022-07-23T11:32:05;6.47;;;5.80;;
48040;SDS011;33815;48.386;11.738;2022-07-23T11:34:33;6.82;;;5.35;;
48040;SDS011;33815;48.386;11.738;2022-07-23T11:36:59;7.72;;;4.80;;
48040;SDS011;33815;48.386;11.738;2022-07-23T11:39:26;4.90;;;4.47;;
48040;SDS011;33815;48.386;11.738;2022-07-23T11:41:52;4.95;;;4.47;;
48040;SDS011;33815;48.386;11.738;2022-07-23T11:44:28;5.07;;;4.55;;
48040;SDS011;33815;48.386;11.738;2022-07-23T11:46:56;6.90;;;4.78;;
48040;SDS011;33815;48.386;11.738;2022-07-23T11:49:22;5.88;;;5.38;;
48040;SDS011;33815;48.386;11.738;2022-07-23T11:52:02;4.72;;;4.32;;
48040;SDS011;33815;48.386;11.738;2022-07-23T11:54:28;5.25;;;4.68;;
48040;SDS011;33815;48.386;11.738;2022-07-23T11:56:57;6.90;;;4.30;;
48040;SDS011;33815;48.386;11.738;2022-07-23T11:59:32;5.78;;;5.18;;
48040;SDS011;33815;48.386;11.738;2022-07-23T12:02:02;4.97;;;4.50;;
48040;SDS011;33815;48.386;11.738;2022-07-23T12:07:08;5.43;;;4.93;;
48040;SDS011;33815;48.386;11.738;2022-07-23T12:09:48;5.40;;;4.43;;
48040;SDS011;33815;48.386;11.738;2022-07-23T12:12:13;5.63;;;5.03;;
48040;SDS011;33815;48.386;11.738;2022-07-23T12:14:52;5.17;;;4.60;;
48040;SDS011;33815;48.386;11.738;2022-07-23T12:17:21;5.10;;;4.68;;
48040;SDS011;33815;48.386;11.738;2022-07-23T12:19:51;6.00;;;4.50;;
48040;SDS011;33815;48.386;11.738;2022-07-23T12:22:17;5.00;;;4.35;;
48040;SDS011;33815;48.386;11.738;2022-07-23T12:24:52;5.03;;;4.55;;
48040;SDS011;33815;48.386;11.738;2022-07-23T12:27:22;4.53;;;4.10;;
48040;SDS011;33815;48.386;11.738;2022-07-23T12:29:48;7.90;;;4.63;;
48040;SDS011;33815;48.386;11.738;2022-07-23T12:32:23;5.28;;;4.50;;
48040;SDS011;33815;48.386;11.738;2022-07-23T12:35:01;8.40;;;5.05;;
48040;SDS011;33815;48.386;11.738;2022-07-23T12:37:32;7.68;;;5.47;;
48040;SDS011;33815;48.386;11.738;2022-07-23T12:40:18;7.05;;;4.90;;
48040;SDS011;33815;48.386;11.738;2022-07-23T12:45:10;5.97;;;5.43;;
48040;SDS011;33815;48.386;11.738;2022-07-23T12:53:22;5.88;;;4.47;;
48040;SDS011;33815;48.386;11.738;2022-07-23T12:55:56;5.15;;;4.68;;
48040;SDS011;33815;48.386;11.738;2022-07-23T12:58:24;5.68;;;4.22;;
48040;SDS011;33815;48.386;11.738;2022-07-23T13:03:25;6.13;;;5.07;;
48040;SDS011;33815;48.386;11.738;2022-07-23T13:05:53;5.47;;;4.45;;
48040;SDS011;33815;48.386;11.738;2022-07-23T13:08:20;5.10;;;4.70;;
48040;SDS011;33815;48.386;11.738;2022-07-23T13:10:46;5.63;;;4.80;;
48040;SDS011;33815;48.386;11.738;2022-07-23T13:13:13;6.05;;;5.45;;
48040;SDS011;33815;48.386;11.738;2022-07-23T13:15:45;5.78;;;4.60;;
48040;SDS011;33815;48.386;11.738;2022-07-23T13:18:11;6.45;;;4.88;;
48040;SDS011;33815;48.386;11.738;2022-07-23T13:20:36;6.90;;;4.70;;
48040;SDS011;33815;48.386;11.738;2022-07-23T13:23:03;5.32;;;4.82;;
48040;SDS011;33815;48.386;11.738;2022-07-23T13:25:28;5.65;;;5.15;;
48040;SDS011;33815;48.386;11.738;2022-07-23T13:27:54;6.73;;;4.90;;
48040;SDS011;33815;48.386;11.738;2022-07-23T13:30:19;5.27;;;4.73;;
48040;SDS011;33815;48.386;11.738;2022-07-23T13:32:44;9.70;;;5.43;;
48040;SDS011;33815;48.386;11.738;2022-07-23T13:35:10;5.60;;;5.10;;
48040;SDS011;33815;48.386;11.738;2022-07-23T13:37:35;7.68;;;4.82;;
48040;SDS011;33815;48.386;11.738;2022-07-23T13:40:00;7.37;;;5.47;;
48040;SDS011;33815;48.386;11.738;2022-07-23T13:42:26;7.32;;;5.53;;
48040;SDS011;33815;48.386;11.738;2022-07-23T13:44:52;9.35;;;6.07;;
48040;SDS011;33815;48.386;11.738;2022-07-23T13:47:17;7.00;;;5.53;;
48040;SDS011;33815;48.386;11.738;2022-07-23T13:49:42;6.67;;;5.50;;
48040;SDS011;33815;48.386;11.738;2022-07-23T13:52:08;7.33;;;5.43;;
48040;SDS011;33815;48.386;11.738;2022-07-23T13:54:33;6.30;;;5.80;;
48040;SDS011;33815;48.386;11.738;2022-07-23T13:56:59;7.55;;;5.20;;
48040;SDS011;33815;48.386;11.738;2022-07-23T13:59:24;7.13;;;5.28;;
48040;SDS011;33815;48.386;11.738;2022-07-23T14:01:50;5.80;;;5.30;;
48040;SDS011;33815;48.386;11.738;2022-07-23T14:04:15;6.90;;;5.37;;
48040;SDS011;33815;48.386;11.738;2022-07-23T14:06:40;6.43;;;5.80;;
48040;SDS011;33815;48.386;11.738;2022-07-23T14:09:06;7.80;;;5.70;;
48040;SDS011;33815;48.386;11.738;2022-07-23T14:11:31;6.73;;;5.80;;
48040;SDS011;33815;48.386;11.738;2022-07-23T14:13:56;6.45;;;5.30;;
48040;SDS011;33815;48.386;11.738;2022-07-23T14:16:23;6.85;;;6.20;;
48040;SDS011;33815;48.386;11.738;2022-07-23T14:18:48;6.00;;;5.40;;
48040;SDS011;33815;48.386;11.738;2022-07-23T14:21:14;6.77;;;6.10;;
48040;SDS011;33815;48.386;11.738;2022-07-23T14:23:39;8.38;;;6.38;;
48040;SDS011;33815;48.386;11.738;2022-07-23T14:26:04;8.93;;;5.97;;
48040;SDS011;33815;48.386;11.738;2022-07-23T14:28:32;6.70;;;6.15;;
48040;SDS011;33815;48.386;11.738;2022-07-23T14:30:58;10.60;;;6.57;;
48040;SDS011;33815;48.386;11.738;2022-07-23T14:33:23;6.10;;;5.53;;
48040;SDS011;33815;48.386;11.738;2022-07-23T14:35:48;6.90;;;6.20;;
48040;SDS011;33815;48.386;11.738;2022-07-23T14:38:13;6.77;;;6.00;;
48040;SDS011;33815;48.386;11.738;2022-07-23T14:40:39;6.43;;;5.70;;
48040;SDS011;33815;48.386;11.738;2022-07-23T14:43:04;9.07;;;7.07;;
48040;SDS011;33815;48.386;11.738;2022-07-23T14:45:29;7.73;;;5.93;;
48040;SDS011;33815;48.386;11.738;2022-07-23T14:47:55;7.55;;;5.97;;
48040;SDS011;33815;48.386;11.738;2022-07-23T14:50:20;8.13;;;6.30;;
48040;SDS011;33815;48.386;11.738;2022-07-23T14:52:46;6.30;;;5.70;;
48040;SDS011;33815;48.386;11.738;2022-07-23T14:55:11;7.35;;;5.63;;
48040;SDS011;33815;48.386;11.738;2022-07-23T14:57:36;7.20;;;5.80;;
48040;SDS011;33815;48.386;11.738;2022-07-23T15:00:03;6.80;;;6.13;;
48040;SDS011;33815;48.386;11.738;2022-07-23T15:02:29;7.10;;;5.82;;
48040;SDS011;33815;48.386;11.738;2022-07-23T15:04:55;7.07;;;6.10;;
48040;SDS011;33815;48.386;11.738;2022-07-23T15:07:23;6.95;;;5.97;;
48040;SDS011;33815;48.386;11.738;2022-07-23T15:09:48;8.10;;;6.55;;
48040;SDS011;33815;48.386;11.738;2022-07-23T15:12:13;5.83;;;5.30;;
48040;SDS011;33815;48.386;11.738;2022-07-23T15:14:38;7.20;;;5.93;;